createdAt,value
2023-03-26T00:00:00.165Z,7.49
2023-03-26T00:01:00.149Z,7.50
2023-03-26T00:02:00.212Z,7.52
2023-03-26T00:03:00.174Z,7.53
2023-03-26T00:04:00.129Z,7.54
2023-03-26T00:05:00.165Z,7.55
2023-03-26T00:06:00.180Z,7.57
2023-03-26T00:07:00.156Z,7.58
2023-03-26T00:08:00.091Z,7.59
2023-03-26T00:09:00.047Z,7.59
2023-03-26T00:10:00.054Z,7.60
2023-03-26T00:11:01.136Z,7.61
2023-03-26T00:12:00.035Z,7.62
2023-03-26T00:12:59.993Z,7.62
2023-03-26T00:13:59.985Z,7.64
2023-03-26T00:14:59.976Z,7.65
2023-03-26T00:15:59.964Z,7.66
2023-03-26T00:16:59.980Z,7.67
2023-03-26T00:17:59.983Z,7.68
2023-03-26T00:18:59.958Z,7.69
2023-03-26T00:19:59.932Z,7.69
2023-03-26T00:20:59.909Z,7.69
2023-03-26T00:21:59.891Z,7.69
2023-03-26T00:22:59.882Z,7.69
2023-03-26T00:23:59.959Z,7.69
2023-03-26T00:24:59.845Z,7.68
2023-03-26T00:25:59.862Z,7.67
2023-03-26T00:26:59.925Z,7.66
2023-03-26T00:27:59.813Z,7.64
2023-03-26T00:28:59.795Z,7.63
2023-03-26T00:29:59.796Z,7.61
2023-03-26T00:30:59.802Z,7.59
2023-03-26T00:31:59.797Z,7.56
2023-03-26T00:32:59.805Z,7.54
2023-03-26T00:33:59.773Z,7.52
2023-03-26T00:34:59.734Z,7.50
2023-03-26T00:36:00.427Z,7.49
2023-03-26T00:36:59.686Z,7.48
2023-03-26T00:37:59.687Z,7.47
2023-03-26T00:38:59.678Z,7.46
2023-03-26T00:40:00.921Z,7.46
2023-03-26T00:40:59.637Z,7.45
2023-03-26T00:41:59.646Z,7.44
2023-03-26T00:42:59.628Z,7.44
2023-03-26T00:43:59.630Z,7.43
2023-03-26T00:44:59.594Z,7.44
2023-03-26T00:45:59.590Z,7.44
2023-03-26T00:46:59.598Z,7.44
2023-03-26T00:47:59.608Z,7.44
2023-03-26T00:48:59.548Z,7.43
2023-03-26T00:49:59.592Z,7.43
2023-03-26T00:50:59.519Z,7.42
2023-03-26T00:51:59.505Z,7.42
2023-03-26T00:52:59.505Z,7.41
2023-03-26T00:53:59.477Z,7.41
2023-03-26T00:54:59.479Z,7.41
2023-03-26T00:55:59.449Z,7.40
2023-03-26T00:56:59.480Z,7.41
2023-03-26T00:57:59.443Z,7.41
2023-03-26T00:58:59.415Z,7.41
2023-03-26T00:59:59.418Z,7.41
2023-03-26T01:00:59.390Z,7.41
2023-03-26T01:01:59.387Z,7.41
2023-03-26T01:02:59.513Z,7.40
2023-03-26T01:04:08.314Z,7.39
2023-03-26T01:04:59.429Z,7.39
2023-03-26T01:05:59.343Z,7.38
2023-03-26T01:06:59.315Z,7.38
2023-03-26T01:07:59.288Z,7.39
2023-03-26T01:08:59.293Z,7.39
2023-03-26T01:09:59.266Z,7.40
2023-03-26T01:10:59.258Z,7.40
2023-03-26T01:11:59.271Z,7.40
2023-03-26T01:12:59.232Z,7.41
2023-03-26T01:13:59.238Z,7.41
2023-03-26T01:14:59.219Z,7.41
2023-03-26T01:15:59.240Z,7.41
2023-03-26T01:16:59.181Z,7.39
2023-03-26T01:17:59.240Z,7.38
2023-03-26T01:18:59.156Z,7.38
2023-03-26T01:19:59.135Z,7.37
2023-03-26T01:20:59.153Z,7.36
2023-03-26T01:21:59.149Z,7.35
2023-03-26T01:22:59.102Z,7.34
2023-03-26T01:23:59.101Z,7.34
2023-03-26T01:24:59.095Z,7.33
2023-03-26T01:25:59.054Z,7.32
2023-03-26T01:26:59.062Z,7.32
2023-03-26T01:27:59.052Z,7.31
2023-03-26T01:28:59.029Z,7.31
2023-03-26T01:29:59.016Z,7.30
2023-03-26T01:30:59.029Z,7.30
2023-03-26T01:31:58.977Z,7.29
2023-03-26T01:32:59.097Z,7.29
2023-03-26T01:33:58.972Z,7.28
2023-03-26T01:34:58.942Z,7.28
2023-03-26T01:35:58.964Z,7.27
2023-03-26T01:36:58.963Z,7.27
2023-03-26T01:37:58.941Z,7.26
2023-03-26T01:38:59.390Z,7.26
2023-03-26T01:39:58.908Z,7.25
2023-03-26T01:40:58.872Z,7.25
2023-03-26T01:41:58.853Z,7.24
2023-03-26T01:42:58.842Z,7.23
2023-03-26T01:43:58.821Z,7.22
2023-03-26T01:44:58.846Z,7.20
2023-03-26T01:45:58.813Z,7.19
2023-03-26T01:46:58.796Z,7.19
2023-03-26T01:47:58.806Z,7.18
2023-03-26T01:48:58.767Z,7.18
2023-03-26T01:49:58.753Z,7.18
2023-03-26T01:50:58.766Z,7.17
2023-03-26T01:51:58.731Z,7.17
2023-03-26T01:52:58.704Z,7.17
2023-03-26T01:53:58.719Z,7.16
2023-03-26T01:54:58.694Z,7.16
2023-03-26T01:55:58.662Z,7.16
2023-03-26T01:56:58.737Z,7.16
2023-03-26T01:57:58.659Z,7.15
2023-03-26T01:58:58.647Z,7.15
2023-03-26T01:59:58.625Z,7.14
2023-03-26T02:00:58.616Z,7.12
2023-03-26T02:01:58.670Z,7.11
2023-03-26T02:02:58.692Z,7.11
2023-03-26T02:03:58.558Z,7.10
2023-03-26T02:04:58.587Z,7.10
2023-03-26T02:05:58.538Z,7.10
2023-03-26T02:06:58.539Z,7.10
2023-03-26T02:07:58.565Z,7.11
2023-03-26T02:08:58.505Z,7.11
2023-03-26T02:09:58.493Z,7.11
2023-03-26T02:10:58.519Z,7.12
2023-03-26T02:11:58.467Z,7.13
2023-03-26T02:12:58.451Z,7.13
2023-03-26T02:13:58.459Z,7.13
2023-03-26T02:14:58.455Z,7.13
2023-03-26T02:15:58.464Z,7.13
2023-03-26T02:16:58.395Z,7.13
2023-03-26T02:17:58.432Z,7.14
2023-03-26T02:18:58.394Z,7.14
2023-03-26T02:19:58.382Z,7.14
2023-03-26T02:20:58.346Z,7.14
2023-03-26T02:21:58.346Z,7.14
2023-03-26T02:22:58.342Z,7.15
2023-03-26T02:23:58.304Z,7.16
2023-03-26T02:24:58.298Z,7.17
2023-03-26T02:25:58.301Z,7.18
2023-03-26T02:26:58.298Z,7.18
2023-03-26T02:27:58.248Z,7.18
2023-03-26T02:28:58.251Z,7.18
2023-03-26T02:29:58.274Z,7.18
2023-03-26T02:30:58.258Z,7.18
2023-03-26T02:31:58.234Z,7.17
2023-03-26T02:32:58.265Z,7.17
2023-03-26T02:33:58.177Z,7.18
2023-03-26T02:34:58.154Z,7.18
2023-03-26T02:35:58.479Z,7.18
2023-03-26T02:36:58.133Z,7.17
2023-03-26T02:37:58.136Z,7.16
2023-03-26T02:38:58.260Z,7.14
2023-03-26T02:39:58.118Z,7.12
2023-03-26T02:40:58.097Z,7.11
2023-03-26T02:41:58.066Z,7.11
2023-03-26T02:42:58.052Z,7.10
2023-03-26T02:43:58.049Z,7.10
2023-03-26T02:44:58.045Z,7.09
2023-03-26T02:45:58.320Z,7.09
2023-03-26T02:46:58.016Z,7.09
2023-03-26T02:47:58.049Z,7.09
2023-03-26T02:48:57.982Z,7.10
2023-03-26T02:49:57.960Z,7.10
2023-03-26T02:50:58.007Z,7.11
2023-03-26T02:51:57.968Z,7.11
2023-03-26T02:52:57.954Z,7.12
2023-03-26T02:53:57.908Z,7.12
2023-03-26T02:54:57.900Z,7.13
2023-03-26T02:55:57.901Z,7.14
2023-03-26T02:56:57.933Z,7.15
2023-03-26T02:57:57.855Z,7.17
2023-03-26T02:58:57.871Z,7.18
2023-03-26T02:59:57.846Z,7.19
2023-03-26T03:00:57.915Z,7.20
2023-03-26T03:01:57.863Z,7.20
2023-03-26T03:02:57.988Z,7.21
2023-03-26T03:03:57.823Z,7.22
2023-03-26T03:04:57.771Z,7.23
2023-03-26T03:05:57.897Z,7.24
2023-03-26T03:06:57.774Z,7.24
2023-03-26T03:07:57.724Z,7.24
2023-03-26T03:08:57.739Z,7.24
2023-03-26T03:09:57.700Z,7.23
2023-03-26T03:10:57.725Z,7.22
2023-03-26T03:11:57.721Z,7.21
2023-03-26T03:12:57.679Z,7.20
2023-03-26T03:13:57.658Z,7.20
2023-03-26T03:14:57.660Z,7.21
2023-03-26T03:15:57.752Z,7.21
2023-03-26T03:16:57.635Z,7.21
2023-03-26T03:17:57.628Z,7.22
2023-03-26T03:18:58.386Z,7.22
2023-03-26T03:19:57.625Z,7.22
2023-03-26T03:20:57.562Z,7.23
2023-03-26T03:21:57.557Z,7.24
2023-03-26T03:22:57.563Z,7.25
2023-03-26T03:24:00.174Z,7.26
2023-03-26T03:24:57.516Z,7.27
2023-03-26T03:25:57.663Z,7.27
2023-03-26T03:26:57.510Z,7.27
2023-03-26T03:27:57.516Z,7.27
2023-03-26T03:28:57.468Z,7.28
2023-03-26T03:29:57.444Z,7.28
2023-03-26T03:30:57.522Z,7.27
2023-03-26T03:31:57.434Z,7.26
2023-03-26T03:32:57.446Z,7.25
2023-03-26T03:33:57.401Z,7.24
2023-03-26T03:34:57.398Z,7.24
2023-03-26T03:35:57.606Z,7.24
2023-03-26T03:36:57.390Z,7.24
2023-03-26T03:37:57.374Z,7.24
2023-03-26T03:38:57.333Z,7.25
2023-03-26T03:39:57.317Z,7.25
2023-03-26T03:40:57.346Z,7.26
2023-03-26T03:41:57.294Z,7.27
2023-03-26T03:42:57.292Z,7.29
2023-03-26T03:43:57.262Z,7.30
2023-03-26T03:44:57.290Z,7.31
2023-03-26T03:45:57.527Z,7.32
2023-03-26T03:46:57.239Z,7.32
2023-03-26T03:47:57.324Z,7.33
2023-03-26T03:48:57.224Z,7.33
2023-03-26T03:49:57.210Z,7.33
2023-03-26T03:50:57.180Z,7.34
2023-03-26T03:51:57.189Z,7.34
2023-03-26T03:52:57.182Z,7.35
2023-03-26T03:53:57.150Z,7.37
2023-03-26T03:54:57.152Z,7.37
2023-03-26T03:55:57.432Z,7.37
2023-03-26T03:56:57.120Z,7.37
2023-03-26T03:57:57.105Z,7.37
2023-03-26T03:58:57.077Z,7.36
2023-03-26T03:59:57.069Z,7.35
2023-03-26T04:00:57.072Z,7.35
2023-03-26T04:01:57.031Z,7.36
2023-03-26T04:02:57.065Z,7.36
2023-03-26T04:03:57.029Z,7.36
2023-03-26T04:04:57.014Z,7.37
2023-03-26T04:05:57.121Z,7.37
2023-03-26T04:06:57.011Z,7.38
2023-03-26T04:07:56.956Z,7.38
2023-03-26T04:08:56.972Z,7.38
2023-03-26T04:09:56.970Z,7.37
2023-03-26T04:10:56.939Z,7.37
2023-03-26T04:11:56.920Z,7.38
2023-03-26T04:12:56.919Z,7.38
2023-03-26T04:13:56.887Z,7.40
2023-03-26T04:14:56.862Z,7.41
2023-03-26T04:15:57.231Z,7.42
2023-03-26T04:16:56.864Z,7.43
2023-03-26T04:17:56.897Z,7.44
2023-03-26T04:18:56.855Z,7.45
2023-03-26T04:19:56.838Z,7.45
2023-03-26T04:20:56.806Z,7.45
2023-03-26T04:21:56.799Z,7.45
2023-03-26T04:22:56.789Z,7.45
2023-03-26T04:23:56.754Z,7.45
2023-03-26T04:24:56.761Z,7.45
2023-03-26T04:25:56.958Z,7.45
2023-03-26T04:26:56.708Z,7.45
2023-03-26T04:27:56.692Z,7.44
2023-03-26T04:28:56.718Z,7.42
2023-03-26T04:29:56.681Z,7.40
2023-03-26T04:30:56.658Z,7.38
2023-03-26T04:31:56.640Z,7.36
2023-03-26T04:32:56.670Z,7.35
2023-03-26T04:33:56.669Z,7.34
2023-03-26T04:34:56.601Z,7.34
2023-03-26T04:35:56.918Z,7.33
2023-03-26T04:36:56.584Z,7.33
2023-03-26T04:37:56.594Z,7.33
2023-03-26T04:38:56.573Z,7.33
2023-03-26T04:39:56.591Z,7.34
2023-03-26T04:40:56.586Z,7.35
2023-03-26T04:41:56.509Z,7.35
2023-03-26T04:42:56.506Z,7.36
2023-03-26T04:43:56.492Z,7.36
2023-03-26T04:44:56.499Z,7.37
2023-03-26T04:45:56.669Z,7.39
2023-03-26T04:46:56.478Z,7.40
2023-03-26T04:47:56.460Z,7.40
2023-03-26T04:48:56.456Z,7.39
2023-03-26T04:49:56.419Z,7.38
2023-03-26T04:50:56.414Z,7.36
2023-03-26T04:51:56.408Z,7.35
2023-03-26T04:52:56.388Z,7.34
2023-03-26T04:53:56.361Z,7.33
2023-03-26T04:54:56.366Z,7.32
2023-03-26T04:55:56.449Z,7.31
2023-03-26T04:56:56.366Z,7.32
2023-03-26T04:57:56.302Z,7.33
2023-03-26T04:58:56.320Z,7.34
2023-03-26T04:59:56.326Z,7.35
2023-03-26T05:00:56.337Z,7.35
2023-03-26T05:01:56.248Z,7.35
2023-03-26T05:02:56.457Z,7.34
2023-03-26T05:03:56.285Z,7.33
2023-03-26T05:04:56.236Z,7.32
2023-03-26T05:05:56.413Z,7.31
2023-03-26T05:06:56.187Z,7.30
2023-03-26T05:07:56.187Z,7.30
2023-03-26T05:08:56.192Z,7.31
2023-03-26T05:09:56.153Z,7.31
2023-03-26T05:10:56.320Z,7.32
2023-03-26T05:11:56.149Z,7.33
2023-03-26T05:12:56.127Z,7.33
2023-03-26T05:13:56.097Z,7.33
2023-03-26T05:14:56.120Z,7.33
2023-03-26T05:15:56.076Z,7.32
2023-03-26T05:16:56.079Z,7.32
2023-03-26T05:17:56.069Z,7.31
2023-03-26T05:18:56.030Z,7.32
2023-03-26T05:19:56.053Z,7.32
2023-03-26T05:20:56.254Z,7.34
2023-03-26T05:21:55.987Z,7.35
2023-03-26T05:22:55.986Z,7.37
2023-03-26T05:23:55.965Z,7.38
2023-03-26T05:24:55.944Z,7.38
2023-03-26T05:25:55.966Z,7.38
2023-03-26T05:26:55.947Z,7.38
2023-03-26T05:27:55.929Z,7.38
2023-03-26T05:28:55.893Z,7.37
2023-03-26T05:29:55.887Z,7.37
2023-03-26T05:30:56.063Z,7.37
2023-03-26T05:31:55.863Z,7.37
2023-03-26T05:32:55.943Z,7.37
2023-03-26T05:33:55.914Z,7.37
2023-03-26T05:34:55.814Z,7.37
2023-03-26T05:35:55.889Z,7.37
2023-03-26T05:36:55.794Z,7.36
2023-03-26T05:37:55.778Z,7.36
2023-03-26T05:38:55.762Z,7.36
2023-03-26T05:39:55.773Z,7.35
2023-03-26T05:40:55.913Z,7.36
2023-03-26T05:41:55.751Z,7.36
2023-03-26T05:42:55.744Z,7.37
2023-03-26T05:43:55.728Z,7.37
2023-03-26T05:44:55.693Z,7.38
2023-03-26T05:45:55.755Z,7.38
2023-03-26T05:46:55.665Z,7.38
2023-03-26T05:47:55.683Z,7.37
2023-03-26T05:48:55.653Z,7.37
2023-03-26T05:49:55.635Z,7.37
2023-03-26T05:50:55.791Z,7.36
2023-03-26T05:51:55.677Z,7.36
2023-03-26T05:52:55.588Z,7.37
2023-03-26T05:53:55.579Z,7.37
2023-03-26T05:54:55.571Z,7.37
2023-03-26T05:55:55.582Z,7.37
2023-03-26T05:56:55.563Z,7.37
2023-03-26T05:57:55.523Z,7.38
2023-03-26T05:58:55.504Z,7.39
2023-03-26T05:59:55.494Z,7.40
2023-03-26T06:00:55.819Z,7.40
2023-03-26T06:01:55.498Z,7.41
2023-03-26T06:02:56.446Z,7.42
2023-03-26T06:03:55.528Z,7.44
2023-03-26T06:04:55.476Z,7.45
2023-03-26T06:05:55.429Z,7.46
2023-03-26T06:06:55.426Z,7.47
2023-03-26T06:07:55.403Z,7.48
2023-03-26T06:09:01.813Z,7.48
2023-03-26T06:09:55.436Z,7.49
2023-03-26T06:10:55.514Z,7.49
2023-03-26T06:11:55.352Z,7.50
2023-03-26T06:12:55.373Z,7.51
2023-03-26T06:13:55.320Z,7.53
2023-03-26T06:14:55.308Z,7.54
2023-03-26T06:15:55.319Z,7.54
2023-03-26T06:16:55.279Z,7.54
2023-03-26T06:17:55.340Z,7.53
2023-03-26T06:18:56.542Z,7.52
2023-03-26T06:19:55.257Z,7.50
2023-03-26T06:20:55.356Z,7.50
2023-03-26T06:21:55.235Z,7.50
2023-03-26T06:22:55.191Z,7.49
2023-03-26T06:23:55.197Z,7.48
2023-03-26T06:24:55.176Z,7.46
2023-03-26T06:25:55.167Z,7.45
2023-03-26T06:26:55.147Z,7.44
2023-03-26T06:27:55.145Z,7.43
2023-03-26T06:28:55.127Z,7.43
2023-03-26T06:29:55.107Z,7.42
2023-03-26T06:30:55.306Z,7.43
2023-03-26T06:31:55.090Z,7.44
2023-03-26T06:32:55.101Z,7.45
2023-03-26T06:33:55.068Z,7.47
2023-03-26T06:34:55.044Z,7.48
2023-03-26T06:35:55.045Z,7.48
2023-03-26T06:36:55.050Z,7.48
2023-03-26T06:37:55.003Z,7.48
2023-03-26T06:38:54.985Z,7.48
2023-03-26T06:39:54.976Z,7.48
2023-03-26T06:40:55.195Z,7.48
2023-03-26T06:41:54.963Z,7.48
2023-03-26T06:43:08.699Z,7.48
2023-03-26T06:43:54.952Z,7.48
2023-03-26T06:44:54.913Z,7.48
2023-03-26T06:45:54.898Z,7.49
2023-03-26T06:46:54.929Z,7.49
2023-03-26T06:47:54.937Z,7.50
2023-03-26T06:48:54.883Z,7.51
2023-03-26T06:49:54.863Z,7.51
2023-03-26T06:50:55.111Z,7.52
2023-03-26T06:51:54.878Z,7.52
2023-03-26T06:52:54.819Z,7.52
2023-03-26T06:53:54.814Z,7.53
2023-03-26T06:54:54.779Z,7.53
2023-03-26T06:55:54.777Z,7.54
2023-03-26T06:56:54.822Z,7.54
2023-03-26T06:57:54.760Z,7.54
2023-03-26T06:58:54.782Z,7.55
2023-03-26T06:59:54.725Z,7.55
2023-03-26T07:00:55.159Z,7.55
2023-03-26T07:01:54.705Z,7.54
2023-03-26T07:02:54.804Z,7.54
2023-03-26T07:03:54.697Z,7.54
2023-03-26T07:04:54.673Z,7.54
2023-03-26T07:05:54.665Z,7.54
2023-03-26T07:06:54.631Z,7.54
2023-03-26T07:07:54.627Z,7.53
2023-03-26T07:08:54.712Z,7.52
2023-03-26T07:09:54.594Z,7.51
2023-03-26T07:10:54.739Z,7.50
2023-03-26T07:11:54.575Z,7.49
2023-03-26T07:12:54.565Z,7.47
2023-03-26T07:13:54.595Z,7.45
2023-03-26T07:14:54.534Z,7.43
2023-03-26T07:15:54.534Z,7.40
2023-03-26T07:16:54.501Z,7.38
2023-03-26T07:17:54.547Z,7.36
2023-03-26T07:18:54.493Z,7.34
2023-03-26T07:19:54.494Z,7.32
2023-03-26T07:20:54.711Z,7.31
2023-03-26T07:21:54.454Z,7.31
2023-03-26T07:22:54.459Z,7.31
2023-03-26T07:23:56.528Z,7.31
2023-03-26T07:24:54.389Z,7.31
2023-03-26T07:25:54.404Z,7.32
2023-03-26T07:26:54.387Z,7.32
2023-03-26T07:27:54.405Z,7.31
2023-03-26T07:29:04.486Z,7.31
2023-03-26T07:29:54.345Z,7.30
2023-03-26T07:30:54.430Z,7.30
2023-03-26T07:31:54.332Z,7.30
2023-03-26T07:32:54.405Z,7.30
2023-03-26T07:33:54.290Z,7.30
2023-03-26T07:36:57.895Z,8.47
2023-03-26T07:38:08.079Z,8.03
2023-03-26T07:38:58.866Z,7.73
2023-03-26T07:39:58.680Z,7.57
2023-03-26T07:40:58.580Z,7.49
2023-03-26T07:41:58.713Z,7.44
2023-03-26T07:43:07.639Z,7.43
2023-03-26T07:43:58.751Z,7.42
2023-03-26T07:44:59.131Z,7.43
2023-03-26T07:45:59.537Z,7.44
2023-03-26T07:46:58.694Z,7.45
2023-03-26T07:47:58.624Z,7.47
2023-03-26T07:48:58.547Z,7.48
2023-03-26T07:49:58.489Z,7.50
2023-03-26T07:50:59.558Z,7.52
2023-03-26T07:51:58.668Z,7.54
2023-03-26T07:52:58.438Z,7.56
2023-03-26T07:53:58.409Z,7.57
2023-03-26T07:54:59.717Z,7.59
2023-03-26T07:55:58.406Z,7.61
2023-03-26T07:56:59.136Z,7.63
2023-03-26T07:57:58.597Z,7.65
2023-03-26T07:58:58.394Z,7.67
2023-03-26T07:59:58.401Z,7.69
2023-03-26T08:00:59.196Z,7.70
2023-03-26T08:01:58.477Z,7.72
2023-03-26T08:02:58.457Z,7.73
2023-03-26T08:03:58.823Z,7.75
2023-03-26T08:04:58.407Z,7.75
2023-03-26T08:05:58.362Z,7.76
2023-03-26T08:06:58.252Z,7.75
2023-03-26T08:07:58.225Z,7.75
2023-03-26T08:08:58.467Z,7.75
2023-03-26T08:09:58.352Z,7.75
2023-03-26T08:10:58.175Z,7.75
2023-03-26T08:11:58.325Z,7.75
2023-03-26T08:12:59.042Z,7.75
2023-03-26T08:13:58.204Z,7.76
2023-03-26T08:14:58.817Z,7.76
2023-03-26T08:15:58.244Z,7.76
2023-03-26T08:16:58.181Z,7.77
2023-03-26T08:17:58.313Z,7.77
2023-03-26T08:18:58.098Z,7.77
2023-03-26T08:19:58.488Z,7.78
2023-03-26T08:20:58.199Z,7.78
2023-03-26T08:21:58.040Z,7.79
2023-03-26T08:22:58.065Z,7.80
2023-03-26T08:23:58.035Z,7.82
2023-03-26T08:24:58.094Z,7.83
2023-03-26T08:25:58.017Z,7.85
2023-03-26T08:26:58.323Z,7.86
2023-03-26T08:27:58.150Z,7.87
2023-03-26T08:28:57.967Z,7.89
2023-03-26T08:29:57.966Z,7.90
2023-03-26T08:30:58.182Z,7.91
2023-03-26T08:31:57.925Z,7.91
2023-03-26T08:32:58.084Z,7.91
2023-03-26T08:33:57.915Z,7.91
2023-03-26T08:34:57.905Z,7.90
2023-03-26T08:35:57.906Z,7.89
2023-03-26T08:36:57.854Z,7.88
2023-03-26T08:37:57.831Z,7.87
2023-03-26T08:38:57.798Z,7.86
2023-03-26T08:39:57.808Z,7.86
2023-03-26T08:40:57.822Z,7.86
2023-03-26T08:41:57.763Z,7.86
2023-03-26T08:42:57.755Z,7.86
2023-03-26T08:43:57.746Z,7.87
2023-03-26T08:44:57.779Z,7.88
2023-03-26T08:45:57.856Z,7.88
2023-03-26T08:46:57.786Z,7.88
2023-03-26T08:47:57.723Z,7.88
2023-03-26T08:50:17.775Z,8.94
2023-03-26T08:51:18.672Z,8.49
2023-03-26T08:52:18.581Z,8.20
2023-03-26T08:53:18.560Z,8.03
2023-03-26T08:54:18.567Z,7.93
2023-03-26T08:55:18.585Z,7.86
2023-03-26T08:56:18.584Z,7.81
2023-03-26T08:57:18.506Z,7.76
2023-03-26T08:58:18.544Z,7.73
2023-03-26T08:59:18.480Z,7.71
2023-03-26T09:00:18.432Z,7.70
2023-03-26T09:01:18.492Z,7.69
2023-03-26T09:02:18.402Z,7.70
2023-03-26T09:03:18.412Z,7.70
2023-03-26T09:04:18.409Z,7.71
2023-03-26T09:05:18.361Z,7.71
2023-03-26T09:06:25.445Z,7.71
2023-03-26T09:07:18.351Z,7.70
2023-03-26T09:08:18.339Z,7.68
2023-03-26T09:09:19.125Z,7.67
2023-03-26T09:10:18.302Z,7.66
2023-03-26T09:11:18.283Z,7.65
2023-03-26T09:12:18.291Z,7.64
2023-03-26T09:13:18.266Z,7.63
2023-03-26T09:14:18.250Z,7.62
2023-03-26T09:15:18.308Z,7.62
2023-03-26T09:16:18.301Z,7.62
2023-03-26T09:17:18.216Z,7.62
2023-03-26T09:18:18.203Z,7.62
2023-03-26T09:19:18.197Z,7.62
2023-03-26T09:20:18.188Z,7.63
2023-03-26T09:21:18.211Z,7.64
2023-03-26T09:22:18.194Z,7.64
2023-03-26T09:23:18.163Z,7.65
2023-03-26T09:24:18.106Z,7.65
2023-03-26T09:25:18.214Z,7.64
2023-03-26T09:26:18.081Z,7.64
2023-03-26T09:27:18.104Z,7.64
2023-03-26T09:28:18.061Z,7.64
2023-03-26T09:29:18.062Z,7.65
2023-03-26T09:30:18.051Z,7.67
2023-03-26T09:31:18.083Z,7.68
2023-03-26T09:32:18.027Z,7.69
2023-03-26T09:33:18.019Z,7.69
2023-03-26T09:34:17.977Z,7.70
2023-03-26T09:35:18.042Z,7.71
2023-03-26T09:36:17.976Z,7.71
2023-03-26T09:37:17.947Z,7.71
2023-03-26T09:38:17.973Z,7.70
2023-03-26T09:39:17.936Z,7.68
2023-03-26T09:40:17.953Z,7.65
2023-03-26T09:41:17.907Z,7.63
2023-03-26T09:42:17.935Z,7.62
2023-03-26T09:43:17.927Z,7.62
2023-03-26T09:44:17.870Z,7.62
2023-03-26T09:45:17.880Z,7.62
2023-03-26T09:46:17.900Z,7.62
2023-03-26T09:47:17.821Z,7.61
2023-03-26T09:48:17.827Z,7.59
2023-03-26T09:49:17.795Z,7.57
2023-03-26T09:50:17.785Z,7.55
2023-03-26T09:51:17.797Z,7.53
2023-03-26T09:52:17.773Z,7.52
2023-03-26T09:53:17.746Z,7.52
2023-03-26T09:54:17.750Z,7.52
2023-03-26T09:55:17.726Z,7.52
2023-03-26T09:56:17.741Z,7.53
2023-03-26T09:57:17.810Z,7.53
2023-03-26T09:58:17.672Z,7.54
2023-03-26T09:59:17.692Z,7.55
2023-03-26T10:00:17.649Z,7.57
2023-03-26T10:01:17.716Z,7.58
2023-03-26T10:02:17.639Z,7.59
2023-03-26T10:03:17.720Z,7.61
2023-03-26T10:04:17.646Z,7.61
2023-03-26T10:05:17.603Z,7.60
2023-03-26T10:06:17.559Z,7.60
2023-03-26T10:07:17.593Z,7.59
2023-03-26T10:08:17.560Z,7.59
2023-03-26T10:09:17.616Z,7.59
2023-03-26T10:10:17.541Z,7.58
2023-03-26T10:11:17.520Z,7.57
2023-03-26T10:12:17.506Z,7.56
2023-03-26T10:13:17.535Z,7.54
2023-03-26T10:14:17.487Z,7.53
2023-03-26T10:15:17.454Z,7.53
2023-03-26T10:16:17.467Z,7.53
2023-03-26T10:17:17.426Z,7.53
2023-03-26T10:18:27.353Z,7.53
2023-03-26T10:19:18.078Z,7.53
2023-03-26T10:20:17.403Z,7.52
2023-03-26T10:21:17.400Z,7.52
2023-03-26T10:22:17.363Z,7.53
2023-03-26T10:23:17.344Z,7.54
2023-03-26T10:24:17.327Z,7.55
2023-03-26T10:25:17.317Z,7.58
2023-03-26T10:26:17.293Z,7.63
2023-03-26T10:27:17.283Z,7.69
2023-03-26T10:28:17.261Z,7.75
2023-03-26T10:29:17.290Z,7.80
2023-03-26T10:30:17.276Z,7.85
2023-03-26T10:31:19.529Z,7.89
2023-03-26T10:32:17.300Z,7.91
2023-03-26T10:33:17.218Z,7.91
2023-03-26T10:34:28.114Z,7.90
2023-03-26T10:35:17.253Z,7.88
2023-03-26T10:36:17.219Z,7.85
2023-03-26T10:37:17.212Z,7.82
2023-03-26T10:38:17.165Z,7.80
2023-03-26T10:39:37.216Z,7.77
2023-03-26T10:40:17.211Z,7.74
2023-03-26T10:41:17.130Z,7.71
2023-03-26T10:42:17.088Z,7.67
2023-03-26T10:43:17.125Z,7.65
2023-03-26T10:44:17.120Z,7.63
2023-03-26T10:45:17.069Z,7.61
2023-03-26T10:46:17.064Z,7.60
2023-03-26T10:47:17.057Z,7.58
2023-03-26T10:48:17.017Z,7.55
2023-03-26T10:49:17.050Z,7.54
2023-03-26T10:50:23.432Z,7.51
2023-03-26T10:51:16.986Z,7.48
2023-03-26T10:52:16.966Z,7.45
2023-03-26T10:53:16.990Z,7.43
2023-03-26T10:54:16.955Z,7.41
2023-03-26T10:55:16.954Z,7.38
2023-03-26T10:56:16.942Z,7.35
2023-03-26T10:57:16.957Z,7.31
2023-03-26T10:58:16.925Z,7.28
2023-03-26T10:59:16.885Z,7.26
2023-03-26T11:00:16.904Z,7.24
2023-03-26T11:01:16.889Z,7.22
2023-03-26T11:02:16.829Z,7.22
2023-03-26T11:03:16.963Z,7.22
2023-03-26T11:04:16.833Z,7.23
2023-03-26T11:05:16.833Z,7.24
2023-03-26T11:06:16.783Z,7.26
2023-03-26T11:07:16.791Z,7.27
2023-03-26T11:08:16.769Z,7.29
2023-03-26T11:09:16.748Z,7.30
2023-03-26T11:10:16.763Z,7.29
2023-03-26T11:11:16.739Z,7.28
2023-03-26T11:12:26.210Z,7.26
2023-03-26T11:13:16.729Z,7.25
2023-03-26T11:14:24.456Z,7.25
2023-03-26T11:15:16.710Z,7.24
2023-03-26T11:16:16.722Z,7.24
2023-03-26T11:17:40.096Z,7.23
2023-03-26T11:18:16.727Z,7.22
2023-03-26T11:19:16.664Z,7.22
2023-03-26T11:20:16.687Z,7.22
2023-03-26T11:21:18.873Z,7.22
2023-03-26T11:22:16.583Z,7.22
2023-03-26T11:23:16.579Z,7.20
2023-03-26T11:24:16.558Z,7.18
2023-03-26T11:25:16.560Z,7.17
2023-03-26T11:26:16.534Z,7.17
2023-03-26T11:27:17.924Z,7.16
2023-03-26T11:28:16.513Z,7.15
2023-03-26T11:29:31.782Z,7.15
2023-03-26T11:30:16.473Z,7.15
2023-03-26T11:31:16.528Z,7.16
2023-03-26T11:32:16.497Z,7.16
2023-03-26T11:33:16.447Z,7.16
2023-03-26T11:34:16.428Z,7.17
2023-03-26T11:35:16.416Z,7.17
2023-03-26T11:36:16.453Z,7.17
2023-03-26T11:37:16.398Z,7.16
2023-03-26T11:38:16.396Z,7.15
2023-03-26T11:39:16.381Z,7.12
2023-03-26T11:40:16.367Z,7.09
2023-03-26T11:41:16.397Z,7.05
2023-03-26T11:42:16.322Z,7.01
2023-03-26T11:43:16.328Z,6.97
2023-03-26T11:44:16.302Z,6.93
2023-03-26T11:45:16.296Z,6.89
2023-03-26T11:46:16.303Z,6.84
2023-03-26T11:47:16.261Z,6.80
2023-03-26T11:48:16.300Z,6.78
2023-03-26T11:49:16.235Z,6.75
2023-03-26T11:50:16.314Z,6.72
2023-03-26T11:51:16.248Z,6.69
2023-03-26T11:52:16.223Z,6.66
2023-03-26T11:53:16.207Z,6.63
2023-03-26T11:54:16.184Z,6.59
2023-03-26T11:55:16.144Z,6.55
2023-03-26T11:56:16.148Z,6.52
2023-03-26T11:57:16.199Z,6.50
2023-03-26T11:58:16.138Z,6.49
2023-03-26T11:59:16.096Z,6.48
2023-03-26T12:00:16.080Z,6.47
2023-03-26T12:01:16.066Z,6.46
2023-03-26T12:02:16.121Z,6.45
2023-03-26T12:03:16.058Z,6.45
2023-03-26T12:04:16.138Z,6.45
2023-03-26T12:05:16.066Z,6.46
2023-03-26T12:06:16.013Z,6.46
2023-03-26T12:07:16.037Z,6.47
2023-03-26T12:08:16.119Z,6.49
2023-03-26T12:09:15.968Z,6.50
2023-03-26T12:10:19.280Z,6.52
2023-03-26T12:11:15.941Z,6.54
2023-03-26T12:12:15.933Z,6.56
2023-03-26T12:13:15.961Z,6.58
2023-03-26T12:14:15.925Z,6.60
2023-03-26T12:15:15.886Z,6.62
2023-03-26T12:16:15.959Z,6.65
2023-03-26T12:17:15.875Z,6.68
2023-03-26T12:18:15.956Z,6.70
2023-03-26T12:19:15.901Z,6.73
2023-03-26T12:20:15.810Z,6.76
2023-03-26T12:21:15.811Z,6.79
2023-03-26T12:22:15.818Z,6.82
2023-03-26T12:23:15.881Z,6.86
2023-03-26T12:24:15.771Z,6.89
2023-03-26T12:25:15.788Z,6.93
2023-03-26T12:26:15.759Z,6.96
2023-03-26T12:27:15.778Z,6.97
2023-03-26T12:28:15.945Z,6.97
2023-03-26T12:29:15.746Z,6.98
2023-03-26T12:30:15.740Z,6.99
2023-03-26T12:31:15.714Z,7.00
2023-03-26T12:32:15.695Z,7.02
2023-03-26T12:33:15.686Z,7.04
2023-03-26T12:34:15.673Z,7.07
2023-03-26T12:35:15.643Z,7.09
2023-03-26T12:36:15.651Z,7.11
2023-03-26T12:37:15.604Z,7.12
2023-03-26T12:38:15.671Z,7.13
2023-03-26T12:39:16.228Z,7.13
2023-03-26T12:40:19.356Z,7.14
2023-03-26T12:43:40.437Z,7.16
2023-03-26T12:44:59.930Z,7.18
2023-03-26T12:45:06.314Z,7.20
2023-03-26T12:47:59.337Z,7.22
2023-03-26T12:48:08.842Z,7.24
2023-03-26T12:48:15.042Z,7.26
2023-03-26T12:49:14.770Z,7.28
2023-03-26T12:50:14.746Z,7.29
2023-03-26T12:51:14.598Z,7.30
2023-03-26T12:52:14.612Z,7.32
2023-03-26T12:53:14.734Z,7.33
2023-03-26T12:54:14.593Z,7.36
2023-03-26T12:55:14.660Z,7.38
2023-03-26T12:56:14.533Z,7.40
2023-03-26T12:57:14.592Z,7.41
2023-03-26T12:58:14.499Z,7.42
2023-03-26T12:59:14.485Z,7.43
2023-03-26T13:00:14.495Z,7.45
2023-03-26T13:01:14.572Z,7.46
2023-03-26T13:02:14.463Z,7.48
2023-03-26T13:03:14.525Z,7.49
2023-03-26T13:04:14.422Z,7.49
2023-03-26T13:05:14.467Z,7.50
2023-03-26T13:06:14.652Z,7.50
2023-03-26T13:07:14.376Z,7.51
2023-03-26T13:08:14.401Z,7.53
2023-03-26T13:09:14.362Z,7.54
2023-03-26T13:10:14.336Z,7.54
2023-03-26T13:11:14.377Z,7.55
2023-03-26T13:12:14.350Z,7.56
2023-03-26T13:13:14.317Z,7.57
2023-03-26T13:14:14.292Z,7.59
2023-03-26T13:15:14.277Z,7.60
2023-03-26T13:16:14.286Z,7.60
2023-03-26T13:17:14.242Z,7.60
2023-03-26T13:18:14.270Z,7.60
2023-03-26T13:19:14.224Z,7.60
2023-03-26T13:20:14.229Z,7.61
2023-03-26T13:21:14.188Z,7.62
2023-03-26T13:22:14.235Z,7.63
2023-03-26T13:23:14.181Z,7.64